createdAt,value
2022-08-29T00:00:48.909Z,89.28
2022-08-29T00:01:48.918Z,89.49
2022-08-29T00:02:48.916Z,89.08
2022-08-29T00:03:48.989Z,89.28
2022-08-29T00:04:48.894Z,89.59
2022-08-29T00:05:50.207Z,89.08
2022-08-29T00:06:48.896Z,89.02
2022-08-29T00:07:48.896Z,89.18
2022-08-29T00:08:48.894Z,88.88
2022-08-29T00:09:48.866Z,89.04
2022-08-29T00:10:48.848Z,89.25
2022-08-29T00:11:48.864Z,87.82
2022-08-29T00:12:48.854Z,87.82
2022-08-29T00:13:48.831Z,88.12
2022-08-29T00:14:48.859Z,87.96
2022-08-29T00:15:48.844Z,88.17
2022-08-29T00:16:48.955Z,89.08
2022-08-29T00:17:48.811Z,89.08
2022-08-29T00:18:48.828Z,89.12
2022-08-29T00:19:48.833Z,89.02
2022-08-29T00:20:48.802Z,89.23
2022-08-29T00:21:48.778Z,89.63
2022-08-29T00:22:48.792Z,89.84
2022-08-29T00:23:48.791Z,89.78
2022-08-29T00:24:48.765Z,89.94
2022-08-29T00:25:48.876Z,90.08
2022-08-29T00:26:48.768Z,90.08
2022-08-29T00:27:49.789Z,89.53
2022-08-29T00:28:48.764Z,89.98
2022-08-29T00:29:48.760Z,90.08
2022-08-29T00:30:48.771Z,89.73
2022-08-29T00:31:48.793Z,89.73
2022-08-29T00:32:48.743Z,89.63
2022-08-29T00:33:48.726Z,89.73
2022-08-29T00:34:49.668Z,89.88
2022-08-29T00:35:48.730Z,90.04
2022-08-29T00:36:49.008Z,90.19
2022-08-29T00:37:48.724Z,90.08
2022-08-29T00:38:49.527Z,89.78
2022-08-29T00:39:48.694Z,90.08
2022-08-29T00:40:51.715Z,89.63
2022-08-29T00:41:48.698Z,89.58
2022-08-29T00:42:48.673Z,90.39
2022-08-29T00:43:48.682Z,90.19
2022-08-29T00:44:48.658Z,89.98
2022-08-29T00:45:48.722Z,90.59
2022-08-29T00:46:48.644Z,90.84
2022-08-29T00:47:48.770Z,90.53
2022-08-29T00:48:48.649Z,90.74
2022-08-29T00:49:48.650Z,90.53
2022-08-29T00:50:48.635Z,90.39
2022-08-29T00:51:48.618Z,89.88
2022-08-29T00:52:48.655Z,89.88
2022-08-29T00:53:48.624Z,89.78
2022-08-29T00:54:48.615Z,89.58
2022-08-29T00:55:50.599Z,89.17
2022-08-29T00:56:48.624Z,89.26
2022-08-29T00:57:48.594Z,89.58
2022-08-29T00:58:48.711Z,89.47
2022-08-29T00:59:48.597Z,89.37
2022-08-29T01:00:48.622Z,90.23
2022-08-29T01:01:48.571Z,90.23
2022-08-29T01:02:48.554Z,90.33
2022-08-29T01:03:48.590Z,90.94
2022-08-29T01:04:48.549Z,90.74
2022-08-29T01:05:48.526Z,91.29
2022-08-29T01:06:48.524Z,91.25
2022-08-29T01:07:48.550Z,91.70
2022-08-29T01:08:48.536Z,91.50
2022-08-29T01:09:48.645Z,91.39
2022-08-29T01:10:48.502Z,91.50
2022-08-29T01:11:48.522Z,91.29
2022-08-29T01:12:48.493Z,91.70
2022-08-29T01:13:48.503Z,91.70
2022-08-29T01:14:48.514Z,91.09
2022-08-29T01:15:48.496Z,91.39
2022-08-29T01:16:48.594Z,91.60
2022-08-29T01:17:48.490Z,91.60
2022-08-29T01:18:48.474Z,91.29
2022-08-29T01:19:48.472Z,91.50
2022-08-29T01:20:48.576Z,91.19
2022-08-29T01:21:48.448Z,91.39
2022-08-29T01:22:48.510Z,90.78
2022-08-29T01:23:48.462Z,90.58
2022-08-29T01:24:48.454Z,90.06
2022-08-29T01:25:49.108Z,90.06
2022-08-29T01:26:48.419Z,90.78
2022-08-29T01:27:48.404Z,90.78
2022-08-29T01:28:48.415Z,91.03
2022-08-29T01:29:48.406Z,90.99
2022-08-29T01:30:48.420Z,90.37
2022-08-29T01:31:57.451Z,91.39
2022-08-29T01:32:49.394Z,91.29
2022-08-29T01:33:48.400Z,91.19
2022-08-29T01:34:48.380Z,91.03
2022-08-29T01:35:48.380Z,91.03
2022-08-29T01:36:49.430Z,91.50
2022-08-29T01:37:48.365Z,91.80
2022-08-29T01:38:48.359Z,91.64
2022-08-29T01:39:48.350Z,92.05
2022-08-29T01:40:48.371Z,91.38
2022-08-29T01:41:48.353Z,91.74
2022-08-29T01:42:48.326Z,91.54
2022-08-29T01:43:48.316Z,91.54
2022-08-29T01:44:48.314Z,91.54
2022-08-29T01:45:48.408Z,91.74
2022-08-29T01:46:48.305Z,91.85
2022-08-29T01:47:48.303Z,91.48
2022-08-29T01:48:48.311Z,92.10
2022-08-29T01:49:48.307Z,91.54
2022-08-29T01:50:48.294Z,91.48
2022-08-29T01:51:48.311Z,92.15
2022-08-29T01:52:48.279Z,91.74
2022-08-29T01:53:48.282Z,91.64
2022-08-29T01:54:48.266Z,91.58
2022-08-29T01:55:48.308Z,92.25
2022-08-29T01:56:48.299Z,92.25
2022-08-29T01:57:48.248Z,91.89
2022-08-29T01:58:48.249Z,92.30
2022-08-29T01:59:48.239Z,92.40
2022-08-29T02:00:48.307Z,92.30
2022-08-29T02:01:48.238Z,91.99
2022-08-29T02:02:48.259Z,92.50
2022-08-29T02:03:48.211Z,92.71
2022-08-29T02:04:48.204Z,92.91
2022-08-29T02:05:48.201Z,92.96
2022-08-29T02:06:48.214Z,93.06
2022-08-29T02:07:48.229Z,92.85
2022-08-29T02:08:48.186Z,93.16
2022-08-29T02:09:48.192Z,93.26
2022-08-29T02:10:48.190Z,93.26
2022-08-29T02:11:48.160Z,93.06
2022-08-29T02:12:48.164Z,92.85
2022-08-29T02:13:48.165Z,93.06
2022-08-29T02:14:48.139Z,93.12
2022-08-29T02:15:48.150Z,92.75
2022-08-29T02:16:48.238Z,92.44
2022-08-29T02:17:48.568Z,92.55
2022-08-29T02:18:48.240Z,92.85
2022-08-29T02:19:48.122Z,92.85
2022-08-29T02:20:48.109Z,92.75
2022-08-29T02:21:48.145Z,92.96
2022-08-29T02:22:48.109Z,92.96
2022-08-29T02:23:48.105Z,93.06
2022-08-29T02:24:48.215Z,92.96
2022-08-29T02:25:48.101Z,92.96
2022-08-29T02:26:48.085Z,92.96
2022-08-29T02:27:48.075Z,93.37
2022-08-29T02:28:48.098Z,92.65
2022-08-29T02:29:48.107Z,92.49
2022-08-29T02:30:48.066Z,92.59
2022-08-29T02:31:48.125Z,92.69
2022-08-29T02:32:48.062Z,92.79
2022-08-29T02:33:48.045Z,93.10
2022-08-29T02:34:48.647Z,92.90
2022-08-29T02:35:48.169Z,93.20
2022-08-29T02:36:48.172Z,93.10
2022-08-29T02:37:48.016Z,93.62
2022-08-29T02:38:48.016Z,93.20
2022-08-29T02:39:47.995Z,93.10
2022-08-29T02:40:48.087Z,93.20
2022-08-29T02:41:47.984Z,93.10
2022-08-29T02:42:48.008Z,93.30
2022-08-29T02:43:47.985Z,93.00
2022-08-29T02:44:47.985Z,93.35
2022-08-29T02:45:47.964Z,93.66
2022-08-29T02:46:48.108Z,93.35
2022-08-29T02:47:47.961Z,93.82
2022-08-29T02:48:54.097Z,93.71
2022-08-29T02:49:48.940Z,93.82
2022-08-29T02:50:47.953Z,93.51
2022-08-29T02:51:47.974Z,93.51
2022-08-29T02:52:47.924Z,94.12
2022-08-29T02:53:47.915Z,93.76
2022-08-29T02:54:47.917Z,93.71
2022-08-29T02:55:47.917Z,93.55
2022-08-29T02:56:47.920Z,92.94
2022-08-29T02:57:48.011Z,93.35
2022-08-29T02:58:47.924Z,93.45
2022-08-29T02:59:47.899Z,93.76
2022-08-29T03:00:47.937Z,93.25
2022-08-29T03:01:47.964Z,93.04
2022-08-29T03:02:47.971Z,93.15
2022-08-29T03:03:47.872Z,93.55
2022-08-29T03:04:47.855Z,93.35
2022-08-29T03:05:47.861Z,93.25
2022-08-29T03:06:47.873Z,93.15
2022-08-29T03:07:50.792Z,93.76
2022-08-29T03:08:48.964Z,93.35
2022-08-29T03:09:47.826Z,93.15
2022-08-29T03:10:47.835Z,93.35
2022-08-29T03:11:47.839Z,93.45
2022-08-29T03:12:47.851Z,94.07
2022-08-29T03:13:47.793Z,93.96
2022-08-29T03:14:47.936Z,94.27
2022-08-29T03:15:47.858Z,93.96
2022-08-29T03:16:47.794Z,93.86
2022-08-29T03:17:47.785Z,94.07
2022-08-29T03:18:47.831Z,93.76
2022-08-29T03:19:47.880Z,94.07
2022-08-29T03:20:47.778Z,93.86
2022-08-29T03:21:47.782Z,93.96
2022-08-29T03:22:47.753Z,94.01
2022-08-29T03:23:47.750Z,93.80
2022-08-29T03:24:47.758Z,94.21
2022-08-29T03:25:47.778Z,93.90
2022-08-29T03:26:47.732Z,93.76
2022-08-29T03:27:48.745Z,94.01
2022-08-29T03:28:47.733Z,93.80
2022-08-29T03:29:47.721Z,94.07
2022-08-29T03:30:47.740Z,93.90
2022-08-29T03:31:47.746Z,94.11
2022-08-29T03:32:47.722Z,94.01
2022-08-29T03:33:47.693Z,93.80
2022-08-29T03:34:47.694Z,93.70
2022-08-29T03:35:47.693Z,94.01
2022-08-29T03:36:47.792Z,93.29
2022-08-29T03:37:47.685Z,93.39
2022-08-29T03:38:47.679Z,93.39
2022-08-29T03:39:47.659Z,93.19
2022-08-29T03:40:47.676Z,93.19
2022-08-29T03:41:47.685Z,93.04
2022-08-29T03:42:47.652Z,92.53
2022-08-29T03:43:47.657Z,92.83
2022-08-29T03:44:47.635Z,92.68
2022-08-29T03:45:47.631Z,92.74
2022-08-29T03:46:47.738Z,92.78
2022-08-29T03:47:47.749Z,93.29
2022-08-29T03:48:47.611Z,92.88
2022-08-29T03:49:47.639Z,92.98
2022-08-29T03:50:47.615Z,93.29
2022-08-29T03:51:47.612Z,93.23
2022-08-29T03:52:47.610Z,93.70
2022-08-29T03:53:47.574Z,93.60
2022-08-29T03:54:47.594Z,92.98
2022-08-29T03:55:47.572Z,93.70
2022-08-29T03:56:47.575Z,94.15
2022-08-29T03:57:47.589Z,93.95
2022-08-29T03:58:52.549Z,93.85
2022-08-29T03:59:47.573Z,93.85
2022-08-29T04:00:47.548Z,93.64
2022-08-29T04:01:47.572Z,94.15
2022-08-29T04:02:47.549Z,93.74
2022-08-29T04:03:47.561Z,93.85
2022-08-29T04:04:47.547Z,94.15
2022-08-29T04:05:47.515Z,94.15
2022-08-29T04:06:47.517Z,93.74
2022-08-29T04:07:47.519Z,93.85
2022-08-29T04:08:47.499Z,94.05
2022-08-29T04:09:47.523Z,94.15
2022-08-29T04:10:47.495Z,93.74
2022-08-29T04:11:47.482Z,93.85
2022-08-29T04:12:51.203Z,93.85
2022-08-29T04:13:47.507Z,94.26
2022-08-29T04:14:47.491Z,93.85
2022-08-29T04:15:47.509Z,93.44
2022-08-29T04:16:47.475Z,93.54
2022-08-29T04:17:52.738Z,93.13
2022-08-29T04:18:47.451Z,93.33
2022-08-29T04:21:56.915Z,93.74
2022-08-29T04:22:44.870Z,93.74
2022-08-29T04:23:44.844Z,93.95
2022-08-29T04:24:44.850Z,93.95
2022-08-29T04:25:44.866Z,93.85
2022-08-29T04:26:44.833Z,94.05
2022-08-29T04:27:45.004Z,93.95
2022-08-29T04:28:44.833Z,93.85
2022-08-29T04:29:44.831Z,93.64
2022-08-29T04:30:50.390Z,93.23
2022-08-29T04:31:44.868Z,93.13
2022-08-29T04:32:44.798Z,93.54
2022-08-29T04:33:44.820Z,92.98
2022-08-29T04:34:45.897Z,93.74
2022-08-29T04:35:45.897Z,94.46
2022-08-29T04:36:45.898Z,93.54
2022-08-29T04:37:45.883Z,93.54
2022-08-29T04:38:45.913Z,94.46
2022-08-29T04:39:45.875Z,94.15
2022-08-29T04:40:45.839Z,93.95
2022-08-29T04:41:45.865Z,94.05
2022-08-29T04:42:45.834Z,93.95
2022-08-29T04:43:45.839Z,93.85
2022-08-29T04:44:45.891Z,93.54
2022-08-29T04:45:45.811Z,93.44
2022-08-29T04:46:45.845Z,93.85
2022-08-29T04:47:45.800Z,93.74
2022-08-29T04:48:45.808Z,93.64
2022-08-29T04:49:45.926Z,93.90
2022-08-29T04:50:45.796Z,93.49
2022-08-29T04:51:45.797Z,93.74
2022-08-29T04:52:45.774Z,93.60
2022-08-29T04:53:45.775Z,93.95
2022-08-29T04:54:45.777Z,94.05
2022-08-29T04:55:45.777Z,93.80
2022-08-29T04:56:47.388Z,93.49
2022-08-29T04:57:45.762Z,92.98
2022-08-29T04:58:45.725Z,94.01
2022-08-29T04:59:45.729Z,93.80
2022-08-29T05:00:45.737Z,94.15
2022-08-29T05:01:45.803Z,94.21
2022-08-29T05:02:45.755Z,94.32
2022-08-29T05:03:45.708Z,93.80
2022-08-29T05:04:45.717Z,93.39
2022-08-29T05:05:45.705Z,93.08
2022-08-29T05:06:45.724Z,93.90
2022-08-29T05:07:45.691Z,93.90
2022-08-29T05:08:45.680Z,94.11
2022-08-29T05:09:45.678Z,94.01
2022-08-29T05:10:45.682Z,94.11
2022-08-29T05:11:45.690Z,93.90
2022-08-29T05:12:45.659Z,94.01
2022-08-29T05:13:45.657Z,93.86
2022-08-29T05:14:45.648Z,93.86
2022-08-29T05:15:45.672Z,93.86
2022-08-29T05:16:45.623Z,94.17
2022-08-29T05:17:45.717Z,94.07
2022-08-29T05:18:45.614Z,93.76
2022-08-29T05:19:45.622Z,93.51
2022-08-29T05:20:45.579Z,93.82
2022-08-29T05:21:45.601Z,93.41
2022-08-29T05:22:45.710Z,93.71
2022-08-29T05:23:45.591Z,93.30
2022-08-29T05:24:45.583Z,93.20
2022-08-29T05:25:45.569Z,93.16
2022-08-29T05:26:45.582Z,92.96
2022-08-29T05:27:45.553Z,92.96
2022-08-29T05:28:45.571Z,93.16
2022-08-29T05:29:45.533Z,93.06
2022-08-29T05:30:45.584Z,92.81
2022-08-29T05:31:45.872Z,92.50
2022-08-29T05:32:45.545Z,92.50
2022-08-29T05:33:45.629Z,92.15
2022-08-29T05:34:45.506Z,91.44
2022-08-29T05:35:45.522Z,91.44
2022-08-29T05:36:45.507Z,91.74
2022-08-29T05:37:46.499Z,91.50
2022-08-29T05:38:45.491Z,91.29
2022-08-29T05:39:45.594Z,91.29
2022-08-29T05:40:45.490Z,90.84
2022-08-29T05:41:45.475Z,91.25
2022-08-29T05:42:45.479Z,90.33
2022-08-29T05:43:45.473Z,90.94
2022-08-29T05:44:45.557Z,90.84
2022-08-29T05:45:45.473Z,90.02
2022-08-29T05:46:45.529Z,89.92
2022-08-29T05:47:49.916Z,90.70
2022-08-29T05:48:45.441Z,90.49
2022-08-29T05:49:45.429Z,90.08
2022-08-29T05:50:45.452Z,89.67
2022-08-29T05:51:45.419Z,89.17
2022-08-29T05:52:45.401Z,89.98
2022-08-29T05:53:45.417Z,90.35
2022-08-29T05:54:45.414Z,90.25
2022-08-29T05:55:45.434Z,89.63
2022-08-29T05:56:45.392Z,89.90
2022-08-29T05:57:45.376Z,89.63
2022-08-29T05:58:45.392Z,89.49
2022-08-29T05:59:45.400Z,89.08
2022-08-29T06:00:45.377Z,88.88
2022-08-29T06:01:45.462Z,89.08
2022-08-29T06:02:45.487Z,89.18
2022-08-29T06:03:46.152Z,89.75
2022-08-29T06:04:47.014Z,89.14
2022-08-29T06:05:45.345Z,88.73
2022-08-29T06:06:45.433Z,88.90
2022-08-29T06:07:45.337Z,88.79
2022-08-29T06:08:45.329Z,87.57
2022-08-29T06:09:45.337Z,87.43
2022-08-29T06:10:45.318Z,87.29
2022-08-29T06:11:46.343Z,86.88
2022-08-29T06:12:45.314Z,86.68
2022-08-29T06:13:45.914Z,87.38
2022-08-29T06:14:50.090Z,87.30
2022-08-29T06:15:45.356Z,87.92
2022-08-29T06:16:45.274Z,85.88
2022-08-29T06:17:45.375Z,85.98
2022-08-29T06:18:45.256Z,86.08
2022-08-29T06:19:45.264Z,86.04
2022-08-29T06:20:45.253Z,84.68
2022-08-29T06:21:45.292Z,85.66
2022-08-29T06:22:45.348Z,83.99
2022-08-29T06:23:45.244Z,81.62
2022-08-29T06:24:45.909Z,82.39
2022-08-29T06:25:45.226Z,80.08
2022-08-29T06:26:45.241Z,78.42
2022-08-29T06:27:45.219Z,77.41
2022-08-29T06:28:45.332Z,77.51
2022-08-29T06:29:45.198Z,78.73
2022-08-29T06:30:45.278Z,77.54
2022-08-29T06:31:45.201Z,77.10
2022-08-29T06:32:45.180Z,76.70
2022-08-29T06:33:45.289Z,76.09
2022-08-29T06:34:45.160Z,75.68
2022-08-29T06:35:46.174Z,75.28
2022-08-29T06:36:45.157Z,75.79
2022-08-29T06:37:45.193Z,77.61
2022-08-29T06:38:45.134Z,77.06
2022-08-29T06:39:45.256Z,76.46
2022-08-29T06:40:45.200Z,74.80
2022-08-29T06:41:45.123Z,74.60
2022-08-29T06:42:45.112Z,75.31
2022-08-29T06:43:46.102Z,74.87
2022-08-29T06:44:45.217Z,73.42
2022-08-29T06:45:45.090Z,72.48
2022-08-29T06:46:45.092Z,72.64
2022-08-29T06:47:45.080Z,70.39
2022-08-29T06:48:45.090Z,69.55
2022-08-29T06:49:45.078Z,68.51
2022-08-29T06:50:46.021Z,68.04
2022-08-29T06:51:45.061Z,69.35
2022-08-29T06:52:47.023Z,69.68
2022-08-29T06:53:45.038Z,69.89
2022-08-29T06:54:45.046Z,69.89
2022-08-29T06:55:45.070Z,70.56
2022-08-29T06:56:45.013Z,68.24
2022-08-29T06:57:45.049Z,69.15
2022-08-29T06:58:45.010Z,68.08
2022-08-29T06:59:45.017Z,66.27
2022-08-29T07:00:49.041Z,68.65
2022-08-29T07:01:45.156Z,66.87
2022-08-29T07:02:45.057Z,64.93
2022-08-29T07:03:45.001Z,64.24
2022-08-29T07:04:44.974Z,62.37
2022-08-29T07:05:44.992Z,60.41
2022-08-29T07:06:45.107Z,58.92
2022-08-29T07:07:45.002Z,57.37
2022-08-29T07:08:54.948Z,55.29
2022-08-29T07:09:44.965Z,54.49
2022-08-29T07:10:44.980Z,53.56
2022-08-29T07:11:44.935Z,54.16
2022-08-29T07:12:44.974Z,54.94
2022-08-29T07:13:44.931Z,52.00
2022-08-29T07:14:44.931Z,52.54
2022-08-29T07:15:44.941Z,50.52
2022-08-29T07:16:44.928Z,52.32
2022-08-29T07:17:44.952Z,50.10
2022-08-29T07:18:44.908Z,49.76
2022-08-29T07:19:44.897Z,48.44
2022-08-29T07:20:44.917Z,47.71
2022-08-29T07:21:45.427Z,46.27
2022-08-29T07:22:44.892Z,46.07
2022-08-29T07:23:44.918Z,46.24
2022-08-29T07:24:44.873Z,49.51
2022-08-29T07:25:44.864Z,50.63
2022-08-29T07:26:44.864Z,52.07
2022-08-29T07:27:44.870Z,54.09
2022-08-29T07:28:46.187Z,54.27
2022-08-29T07:29:47.656Z,54.71
2022-08-29T07:30:46.896Z,53.29
2022-08-29T07:31:44.827Z,54.01
2022-08-29T07:32:44.832Z,54.22
2022-08-29T07:33:44.843Z,56.21
2022-08-29T07:34:44.935Z,55.99
2022-08-29T07:35:44.821Z,54.27
2022-08-29T07:36:44.816Z,53.84
2022-08-29T07:37:47.782Z,54.21
2022-08-29T07:38:45.808Z,53.14
2022-08-29T07:39:44.910Z,54.24
2022-08-29T07:40:44.833Z,53.44
2022-08-29T07:41:44.778Z,53.04
2022-08-29T07:42:44.784Z,53.81
2022-08-29T07:43:44.771Z,53.91
2022-08-29T07:44:44.753Z,54.14
2022-08-29T07:45:44.893Z,55.49
2022-08-29T07:46:44.759Z,55.36
2022-08-29T07:47:44.735Z,54.61
2022-08-29T07:48:44.741Z,54.61
2022-08-29T07:49:44.744Z,54.21
2022-08-29T07:50:44.747Z,54.31
2022-08-29T07:51:44.917Z,53.64
2022-08-29T07:52:44.732Z,55.49
2022-08-29T07:53:44.719Z,54.86
2022-08-29T07:54:44.707Z,55.49
2022-08-29T07:55:44.703Z,55.71
2022-08-29T07:56:44.793Z,56.24
2022-08-29T07:57:44.691Z,56.68
2022-08-29T07:58:44.704Z,55.69
2022-08-29T07:59:44.666Z,55.46
2022-08-29T08:00:44.674Z,55.36
2022-08-29T08:01:44.780Z,56.66
2022-08-29T08:02:44.726Z,55.19
2022-08-29T08:03:44.656Z,55.56
2022-08-29T08:04:44.672Z,55.26
2022-08-29T08:05:44.664Z,52.94
2022-08-29T08:06:44.655Z,56.26
2022-08-29T08:07:44.673Z,54.01
2022-08-29T08:08:44.641Z,54.14
2022-08-29T08:09:44.631Z,53.47
2022-08-29T08:10:47.836Z,55.17
2022-08-29T08:11:44.649Z,58.25
2022-08-29T08:12:44.722Z,59.15
2022-08-29T08:13:44.607Z,59.44
2022-08-29T08:14:44.604Z,56.51
2022-08-29T08:15:44.613Z,56.48
2022-08-29T08:16:44.932Z,54.59
2022-08-29T08:17:44.567Z,55.14
2022-08-29T08:18:44.718Z,56.46
2022-08-29T08:19:44.575Z,57.26
2022-08-29T08:20:44.575Z,57.71
2022-08-29T08:21:49.963Z,54.41
2022-08-29T08:22:44.555Z,55.41
2022-08-29T08:23:44.671Z,55.21
2022-08-29T08:24:44.538Z,54.94
2022-08-29T08:25:44.545Z,55.94
2022-08-29T08:26:45.448Z,54.76
2022-08-29T08:27:44.520Z,51.45
2022-08-29T08:28:44.579Z,49.86
2022-08-29T08:29:44.564Z,48.92
2022-08-29T08:30:44.531Z,48.38
2022-08-29T08:31:44.512Z,47.74
2022-08-29T08:32:47.423Z,47.59
2022-08-29T08:33:45.565Z,45.59
2022-08-29T08:34:44.596Z,46.18
2022-08-29T08:35:46.838Z,44.50
2022-08-29T08:36:44.487Z,45.71
2022-08-29T08:37:44.483Z,45.73
2022-08-29T08:38:44.478Z,45.87
2022-08-29T08:39:44.457Z,47.68
2022-08-29T08:40:44.539Z,46.02
2022-08-29T08:41:44.474Z,47.11
2022-08-29T08:42:44.461Z,46.53
2022-08-29T08:43:44.470Z,47.55
2022-08-29T08:44:44.466Z,48.08
2022-08-29T08:45:44.564Z,48.72
2022-08-29T08:46:44.562Z,47.56
2022-08-29T08:47:45.100Z,46.86
2022-08-29T08:48:44.450Z,46.39
2022-08-29T08:49:44.426Z,46.00
2022-08-29T08:50:44.453Z,46.19
2022-08-29T08:51:44.633Z,46.89
2022-08-29T08:52:44.419Z,46.48
2022-08-29T08:53:44.394Z,48.91
2022-08-29T08:54:44.395Z,49.43
2022-08-29T08:55:44.387Z,48.99
2022-08-29T08:56:44.522Z,49.33
2022-08-29T08:57:44.459Z,48.22
2022-08-29T08:58:44.363Z,48.47
2022-08-29T08:59:45.410Z,46.42
2022-08-29T09:00:44.366Z,45.56
2022-08-29T09:01:44.460Z,44.40
2022-08-29T09:02:44.566Z,42.82
2022-08-29T09:03:44.359Z,43.95
2022-08-29T09:04:44.336Z,43.28
2022-08-29T09:05:48.973Z,44.98
2022-08-29T09:06:45.329Z,44.49
2022-08-29T09:07:44.435Z,43.30
2022-08-29T09:08:44.303Z,44.59
2022-08-29T09:09:44.343Z,43.89
2022-08-29T09:10:44.323Z,43.32
2022-08-29T09:11:44.318Z,45.48
2022-08-29T09:12:44.302Z,44.56
2022-08-29T09:13:44.327Z,43.46
2022-08-29T09:14:44.287Z,43.70
2022-08-29T09:15:44.289Z,43.79
2022-08-29T09:16:44.374Z,44.39
2022-08-29T09:17:44.274Z,45.52
2022-08-29T09:18:44.312Z,45.40
2022-08-29T09:19:45.255Z,44.85
2022-08-29T09:20:44.352Z,45.50
2022-08-29T09:21:44.240Z,44.29
2022-08-29T09:22:44.239Z,44.90
2022-08-29T09:23:44.391Z,44.31
2022-08-29T09:24:44.385Z,45.90
2022-08-29T09:25:44.238Z,45.95
2022-08-29T09:26:44.229Z,45.14
2022-08-29T09:27:44.916Z,42.74
2022-08-29T09:28:44.213Z,42.92
2022-08-29T09:29:44.305Z,43.91
2022-08-29T09:30:44.273Z,43.31
2022-08-29T09:31:44.320Z,44.23
2022-08-29T09:32:44.189Z,43.65
2022-08-29T09:33:44.182Z,43.48
2022-08-29T09:35:07.989Z,44.84
2022-08-29T09:35:46.318Z,44.24
2022-08-29T09:36:46.054Z,46.12
2022-08-29T09:37:44.160Z,44.17
2022-08-29T09:38:44.150Z,44.94
2022-08-29T09:39:46.020Z,44.54
2022-08-29T09:40:44.230Z,43.12
2022-08-29T09:41:44.242Z,43.19
2022-08-29T09:42:44.120Z,42.01
2022-08-29T09:43:44.119Z,41.14
2022-08-29T09:44:44.927Z,43.21
2022-08-29T09:45:44.156Z,42.44
2022-08-29T09:46:44.202Z,43.26
2022-08-29T09:47:44.120Z,43.16
2022-08-29T09:48:44.088Z,42.76
2022-08-29T09:49:44.087Z,43.48
2022-08-29T09:50:44.098Z,44.39
2022-08-29T09:51:44.077Z,44.05
2022-08-29T09:52:44.117Z,42.66
2022-08-29T09:53:44.053Z,46.42
2022-08-29T09:54:44.065Z,44.59
2022-08-29T09:55:45.293Z,43.46
2022-08-29T09:56:47.996Z,45.12
2022-08-29T09:57:44.077Z,44.78
2022-08-29T09:58:44.044Z,44.39
2022-08-29T09:59:45.266Z,45.30
2022-08-29T10:00:44.124Z,44.67
2022-08-29T10:01:44.061Z,42.57
2022-08-29T10:02:44.174Z,42.17
2022-08-29T10:03:44.031Z,46.23
2022-08-29T10:04:44.039Z,43.06
2022-08-29T10:05:44.009Z,44.15
2022-08-29T10:06:48.408Z,43.67
2022-08-29T10:07:46.070Z,45.56
2022-08-29T10:08:44.103Z,45.68
2022-08-29T10:09:43.978Z,46.86
2022-08-29T10:10:43.980Z,44.19
2022-08-29T10:11:43.975Z,44.81
2022-08-29T10:12:43.969Z,45.52
2022-08-29T10:13:43.955Z,45.12
2022-08-29T10:14:50.329Z,45.28
2022-08-29T10:15:51.038Z,42.90
2022-08-29T10:16:46.007Z,43.18
2022-08-29T10:17:43.944Z,43.08
2022-08-29T10:18:43.921Z,42.35
2022-08-29T10:19:43.944Z,41.99
2022-08-29T10:20:43.905Z,40.09
2022-08-29T10:21:43.919Z,40.37
2022-08-29T10:22:43.909Z,41.31
2022-08-29T10:23:43.898Z,42.25
2022-08-29T10:24:43.898Z,42.09
2022-08-29T10:25:43.925Z,43.71
2022-08-29T10:26:43.912Z,43.02
2022-08-29T10:27:43.879Z,44.73
2022-08-29T10:28:43.864Z,43.70
2022-08-29T10:29:43.899Z,43.52
2022-08-29T10:30:43.988Z,43.70
2022-08-29T10:31:43.987Z,43.79
2022-08-29T10:32:43.853Z,45.10
2022-08-29T10:33:43.835Z,43.30
2022-08-29T10:34:43.848Z,42.46
2022-08-29T10:36:15.898Z,42.74
2022-08-29T10:36:43.841Z,42.14
2022-08-29T10:37:43.829Z,43.63
2022-08-29T10:38:43.826Z,43.24
2022-08-29T10:39:43.822Z,42.84
2022-08-29T10:40:43.941Z,44.42
2022-08-29T10:41:48.313Z,43.31
2022-08-29T10:42:44.803Z,42.36
2022-08-29T10:43:43.782Z,43.30
2022-08-29T10:44:43.791Z,44.60
2022-08-29T10:45:43.876Z,43.14
2022-08-29T10:46:43.805Z,44.93
2022-08-29T10:47:43.779Z,43.71
2022-08-29T10:48:43.787Z,43.93
2022-08-29T10:49:44.972Z,44.65
2022-08-29T10:50:45.316Z,45.19
2022-08-29T10:51:44.779Z,45.90
2022-08-29T10:52:43.756Z,46.68
2022-08-29T10:53:43.742Z,45.29
2022-08-29T10:54:43.743Z,46.55
2022-08-29T10:55:43.724Z,45.93
2022-08-29T10:56:43.742Z,44.52
2022-08-29T10:57:43.829Z,44.62
2022-08-29T10:58:43.717Z,45.79
2022-08-29T10:59:43.704Z,44.89
2022-08-29T11:00:43.731Z,45.51
2022-08-29T11:01:44.769Z,47.89
2022-08-29T11:02:43.797Z,45.89
2022-08-29T11:03:43.702Z,45.67
2022-08-29T11:04:43.682Z,45.84
2022-08-29T11:05:43.690Z,44.93
2022-08-29T11:06:43.691Z,45.82
2022-08-29T11:07:43.674Z,45.33
2022-08-29T11:08:43.684Z,47.86
2022-08-29T11:09:43.660Z,45.73
2022-08-29T11:10:43.639Z,45.61
2022-08-29T11:11:43.658Z,45.51
2022-08-29T11:12:43.651Z,47.17
2022-08-29T11:13:43.652Z,45.29
2022-08-29T11:14:43.631Z,46.34
2022-08-29T11:15:43.613Z,46.19
2022-08-29T11:16:43.650Z,44.11
2022-08-29T11:17:43.618Z,43.54
2022-08-29T11:18:43.614Z,44.51
2022-08-29T11:19:43.619Z,45.10
2022-08-29T11:20:43.604Z,44.09
2022-08-29T11:21:43.595Z,45.28
2022-08-29T11:22:43.569Z,43.70
2022-08-29T11:23:43.583Z,43.99
2022-08-29T11:24:47.029Z,42.80
2022-08-29T11:25:44.566Z,44.29
2022-08-29T11:26:43.572Z,44.71
2022-08-29T11:27:43.562Z,43.54
2022-08-29T11:29:43.558Z,43.98
2022-08-29T11:30:46.080Z,45.47
2022-08-29T11:31:43.612Z,45.76
2022-08-29T11:32:43.524Z,44.48
2022-08-29T11:33:43.529Z,44.49
2022-08-29T11:34:43.510Z,45.68
2022-08-29T11:35:43.638Z,45.67
2022-08-29T11:36:43.519Z,45.41
2022-08-29T11:37:43.485Z,45.81
2022-08-29T11:38:43.498Z,46.35
2022-08-29T11:39:43.495Z,46.47
2022-08-29T11:41:44.654Z,48.41
2022-08-29T11:42:51.011Z,48.32
2022-08-29T11:43:45.471Z,45.81
2022-08-29T11:44:43.457Z,46.48
2022-08-29T11:45:43.448Z,45.89
2022-08-29T11:46:43.522Z,46.98
2022-08-29T11:47:43.578Z,47.05
2022-08-29T11:48:43.438Z,44.65
2022-08-29T11:49:43.451Z,44.13
2022-08-29T11:50:43.464Z,44.45
2022-08-29T11:51:43.420Z,42.86
2022-08-29T11:52:43.537Z,45.68
2022-08-29T11:53:43.398Z,45.81
2022-08-29T11:54:43.401Z,46.23
2022-08-29T11:55:43.406Z,46.45
2022-08-29T11:56:43.404Z,46.23
2022-08-29T11:57:43.389Z,47.89
2022-08-29T11:58:43.482Z,46.48
2022-08-29T11:59:43.373Z,45.64
2022-08-29T12:00:43.382Z,44.45
2022-08-29T12:01:43.400Z,44.83
2022-08-29T12:02:48.294Z,45.64
2022-08-29T12:03:44.450Z,45.76
2022-08-29T12:04:43.364Z,44.48
2022-08-29T12:05:43.329Z,45.72
2022-08-29T12:06:43.317Z,45.10
2022-08-29T12:07:43.339Z,42.82
2022-08-29T12:08:43.322Z,44.93
2022-08-29T12:09:43.344Z,44.53
2022-08-29T12:10:43.305Z,44.60
2022-08-29T12:11:43.315Z,44.01
2022-08-29T12:12:43.310Z,43.71
2022-08-29T12:13:43.292Z,43.84
2022-08-29T12:14:43.390Z,44.39
2022-08-29T12:15:43.281Z,43.91
2022-08-29T12:16:43.360Z,44.09
2022-08-29T12:18:00.991Z,43.12
2022-08-29T12:18:45.283Z,43.76
2022-08-29T12:19:43.269Z,45.54
2022-08-29T12:20:43.308Z,43.44
2022-08-29T12:21:43.252Z,44.65
2022-08-29T12:23:43.234Z,46.80
2022-08-29T12:24:43.243Z,46.62
2022-08-29T12:25:43.367Z,45.71
2022-08-29T12:26:43.210Z,45.89
2022-08-29T12:27:43.224Z,45.96
2022-08-29T12:28:43.211Z,46.02
2022-08-29T12:29:44.727Z,43.91
2022-08-29T12:30:43.209Z,44.60
2022-08-29T12:31:56.376Z,43.34
2022-08-29T12:32:45.211Z,44.15
2022-08-29T12:33:43.192Z,44.57
2022-08-29T12:34:43.164Z,45.64
2022-08-29T12:35:43.177Z,45.86
2022-08-29T12:36:52.443Z,45.76
2022-08-29T12:37:44.175Z,46.73
2022-08-29T12:38:43.158Z,45.50
2022-08-29T12:39:43.187Z,44.21
2022-08-29T12:40:43.198Z,44.04
2022-08-29T12:41:43.151Z,46.59
2022-08-29T12:42:43.201Z,45.62
2022-08-29T12:43:43.133Z,45.56
2022-08-29T12:44:43.257Z,45.74
2022-08-29T12:45:43.129Z,46.78
2022-08-29T12:46:43.156Z,47.45
2022-08-29T12:47:45.985Z,46.70
2022-08-29T12:48:43.101Z,46.19
2022-08-29T12:49:43.089Z,48.59
2022-08-29T12:50:43.168Z,46.28
2022-08-29T12:51:43.110Z,46.86
2022-08-29T12:52:43.098Z,45.96
2022-08-29T12:53:43.091Z,48.14
2022-08-29T12:54:45.910Z,46.19
2022-08-29T12:55:43.060Z,46.58
2022-08-29T12:56:43.065Z,46.68
2022-08-29T12:57:43.048Z,45.96